createdAt,value
2019-03-09T00:00:16.898Z,1019.31
2019-03-09T00:01:16.695Z,1019.29
2019-03-09T00:02:16.877Z,1019.29
2019-03-09T00:03:16.781Z,1019.3
2019-03-09T00:04:16.815Z,1019.29
2019-03-09T00:05:16.898Z,1019.31
2019-03-09T00:06:16.850Z,1019.32
2019-03-09T00:07:17.011Z,1019.32
2019-03-09T00:08:16.838Z,1019.3
2019-03-09T00:09:16.858Z,1019.31
2019-03-09T00:10:16.798Z,1019.31
2019-03-09T00:11:16.776Z,1019.35
2019-03-09T00:12:16.954Z,1019.34
2019-03-09T00:13:16.700Z,1019.34
2019-03-09T00:14:17.096Z,1019.31
2019-03-09T00:15:16.696Z,1019.29
2019-03-09T00:16:16.857Z,1019.27
2019-03-09T00:17:16.849Z,1019.24
2019-03-09T00:18:16.706Z,1019.26
2019-03-09T00:19:16.794Z,1019.28
2019-03-09T00:20:16.886Z,1019.26
2019-03-09T00:21:16.732Z,1019.28
2019-03-09T00:22:16.846Z,1019.31
2019-03-09T00:23:16.635Z,1019.33
2019-03-09T00:24:17.233Z,1019.36
2019-03-09T00:25:16.826Z,1019.39
2019-03-09T00:26:16.606Z,1019.39
2019-03-09T00:27:16.746Z,1019.44
2019-03-09T00:28:16.765Z,1019.42
2019-03-09T00:29:16.906Z,1019.4
2019-03-09T00:30:17.232Z,1019.42
2019-03-09T00:31:16.807Z,1019.44
2019-03-09T00:32:16.789Z,1019.4
2019-03-09T00:33:17.304Z,1019.44
2019-03-09T00:34:16.939Z,1019.44
2019-03-09T00:35:16.729Z,1019.43
2019-03-09T00:36:16.742Z,1019.47
2019-03-09T00:37:16.778Z,1019.41
2019-03-09T00:38:16.771Z,1019.43
2019-03-09T00:39:16.768Z,1019.4
2019-03-09T00:40:16.795Z,1019.42
2019-03-09T00:41:17.253Z,1019.39
2019-03-09T00:42:16.785Z,1019.38
2019-03-09T00:43:16.845Z,1019.37
2019-03-09T00:44:16.685Z,1019.33
2019-03-09T00:45:16.821Z,1019.28
2019-03-09T00:46:16.714Z,1019.27
2019-03-09T00:47:16.718Z,1019.26
2019-03-09T00:48:16.823Z,1019.27
2019-03-09T00:49:16.718Z,1019.27
2019-03-09T00:50:16.704Z,1019.27
2019-03-09T00:51:17.157Z,1019.23
2019-03-09T00:52:17.050Z,1019.23
2019-03-09T00:53:16.828Z,1019.24
2019-03-09T00:54:16.977Z,1019.22
2019-03-09T00:55:16.837Z,1019.24
2019-03-09T00:56:16.806Z,1019.24
2019-03-09T00:57:16.691Z,1019.26
2019-03-09T00:58:16.781Z,1019.26
2019-03-09T00:59:16.870Z,1019.21
2019-03-09T01:00:16.706Z,1019.19
2019-03-09T01:01:16.792Z,1019.18
2019-03-09T01:02:16.788Z,1019.18
2019-03-09T01:03:16.666Z,1019.14
2019-03-09T01:04:16.809Z,1019.15
2019-03-09T01:05:16.963Z,1019.08
2019-03-09T01:06:16.754Z,1019.06
2019-03-09T01:07:16.879Z,1019.06
2019-03-09T01:08:16.655Z,1019.07
2019-03-09T01:09:16.704Z,1019.08
2019-03-09T01:10:16.810Z,1019.03
2019-03-09T01:11:16.649Z,1019
2019-03-09T01:12:16.901Z,1018.95
2019-03-09T01:13:16.972Z,1018.95
2019-03-09T01:14:16.780Z,1018.87
2019-03-09T01:15:16.882Z,1018.87
2019-03-09T01:16:16.585Z,1018.89
2019-03-09T01:17:16.723Z,1018.85
2019-03-09T01:18:16.766Z,1018.81
2019-03-09T01:19:16.633Z,1018.77
2019-03-09T01:20:16.768Z,1018.78
2019-03-09T01:21:16.882Z,1018.77
2019-03-09T01:22:16.730Z,1018.7
2019-03-09T01:23:16.702Z,1018.72
2019-03-09T01:24:16.818Z,1018.63
2019-03-09T01:25:16.693Z,1018.59
2019-03-09T01:26:16.831Z,1018.56
2019-03-09T01:27:16.943Z,1018.59
2019-03-09T01:28:16.781Z,1018.57
2019-03-09T01:29:16.798Z,1018.6
2019-03-09T01:30:16.666Z,1018.53
2019-03-09T01:31:16.689Z,1018.46
2019-03-09T01:32:16.823Z,1018.5
2019-03-09T01:33:16.775Z,1018.43
2019-03-09T01:34:16.724Z,1018.41
2019-03-09T01:35:16.841Z,1018.4
2019-03-09T01:36:16.694Z,1018.38
2019-03-09T01:37:16.741Z,1018.41
2019-03-09T01:38:16.530Z,1018.39
2019-03-09T01:39:16.717Z,1018.37
2019-03-09T01:40:16.779Z,1018.33
2019-03-09T01:41:16.626Z,1018.35
2019-03-09T01:42:16.728Z,1018.36
2019-03-09T01:43:16.809Z,1018.39
2019-03-09T01:44:16.663Z,1018.36
2019-03-09T01:45:16.752Z,1018.37
2019-03-09T01:46:16.733Z,1018.32
2019-03-09T01:47:16.745Z,1018.23
2019-03-09T01:48:16.737Z,1018.24
2019-03-09T01:49:16.606Z,1018.23
2019-03-09T01:50:16.833Z,1018.24
2019-03-09T01:51:16.824Z,1018.21
2019-03-09T01:52:16.710Z,1018.15
2019-03-09T01:53:16.763Z,1018.08
2019-03-09T01:54:16.811Z,1018.07
2019-03-09T01:55:16.704Z,1018.08
2019-03-09T01:56:17.142Z,1018.02
2019-03-09T01:57:16.953Z,1018.05
2019-03-09T01:58:16.741Z,1017.99
2019-03-09T01:59:16.821Z,1018.01
2019-03-09T02:00:16.823Z,1017.92
2019-03-09T02:01:16.726Z,1017.97
2019-03-09T02:02:16.759Z,1017.95
2019-03-09T02:03:16.923Z,1017.99
2019-03-09T02:04:16.688Z,1017.93
2019-03-09T02:05:16.732Z,1017.96
2019-03-09T02:06:16.584Z,1017.86
2019-03-09T02:07:16.718Z,1017.85
2019-03-09T02:08:16.771Z,1017.86
2019-03-09T02:09:16.608Z,1017.86
2019-03-09T02:10:16.828Z,1017.82
2019-03-09T02:11:16.904Z,1017.83
2019-03-09T02:12:16.704Z,1017.83
2019-03-09T02:13:16.771Z,1017.77
2019-03-09T02:14:16.900Z,1017.73
2019-03-09T02:15:16.637Z,1017.73
2019-03-09T02:16:16.783Z,1017.75
2019-03-09T02:17:16.641Z,1017.76
2019-03-09T02:18:16.659Z,1017.75
2019-03-09T02:19:16.759Z,1017.75
2019-03-09T02:20:16.650Z,1017.78
2019-03-09T02:21:16.787Z,1017.78
2019-03-09T02:22:16.845Z,1017.74
2019-03-09T02:23:16.600Z,1017.7
2019-03-09T02:24:16.688Z,1017.69
2019-03-09T02:25:16.824Z,1017.64
2019-03-09T02:26:16.696Z,1017.67
2019-03-09T02:27:16.689Z,1017.7
2019-03-09T02:28:16.799Z,1017.64
2019-03-09T02:29:16.740Z,1017.63
2019-03-09T02:30:16.812Z,1017.66
2019-03-09T02:31:16.837Z,1017.62
2019-03-09T02:32:16.624Z,1017.65
2019-03-09T02:33:16.712Z,1017.62
2019-03-09T02:34:16.638Z,1017.61
2019-03-09T02:35:16.778Z,1017.65
2019-03-09T02:36:16.750Z,1017.62
2019-03-09T02:37:16.706Z,1017.62
2019-03-09T02:38:17.295Z,1017.55
2019-03-09T02:39:16.917Z,1017.52
2019-03-09T02:40:16.781Z,1017.47
2019-03-09T02:41:16.778Z,1017.4
2019-03-09T02:42:16.878Z,1017.35
2019-03-09T02:43:16.745Z,1017.32
2019-03-09T02:44:16.780Z,1017.23
2019-03-09T02:45:16.701Z,1017.24
2019-03-09T02:46:16.676Z,1017.22
2019-03-09T02:47:16.796Z,1017.34
2019-03-09T02:48:16.693Z,1017.34
2019-03-09T02:49:16.794Z,1017.36
2019-03-09T02:50:16.842Z,1017.27
2019-03-09T02:51:16.639Z,1017.29
2019-03-09T02:52:16.742Z,1017.29
2019-03-09T02:53:16.898Z,1017.3
2019-03-09T02:54:16.698Z,1017.21
2019-03-09T02:55:16.792Z,1017.24
2019-03-09T02:56:16.575Z,1017.24
2019-03-09T02:57:16.747Z,1017.16
2019-03-09T02:58:16.781Z,1017.17
2019-03-09T02:59:16.636Z,1017.14
2019-03-09T03:00:17.255Z,1017.22
2019-03-09T03:01:17.655Z,1017.16
2019-03-09T03:02:16.864Z,1017.17
2019-03-09T03:03:16.753Z,1017.18
2019-03-09T03:04:17.164Z,1017.12
2019-03-09T03:05:16.654Z,1017.11
2019-03-09T03:06:16.727Z,1017.01
2019-03-09T03:07:16.885Z,1017.03
2019-03-09T03:08:16.597Z,1017.01
2019-03-09T03:09:16.737Z,1016.99
2019-03-09T03:10:16.619Z,1016.93
2019-03-09T03:11:16.613Z,1016.92
2019-03-09T03:12:16.801Z,1016.86
2019-03-09T03:13:16.834Z,1016.84
2019-03-09T03:14:16.751Z,1016.89
2019-03-09T03:15:16.818Z,1016.9
2019-03-09T03:16:16.662Z,1016.86
2019-03-09T03:17:16.667Z,1016.85
2019-03-09T03:18:16.764Z,1016.88
2019-03-09T03:19:16.870Z,1016.81
2019-03-09T03:20:17.000Z,1016.87
2019-03-09T03:21:16.813Z,1016.88
2019-03-09T03:22:17.642Z,1016.84
2019-03-09T03:23:16.822Z,1016.9
2019-03-09T03:24:16.533Z,1016.92
2019-03-09T03:25:16.713Z,1016.94
2019-03-09T03:26:16.853Z,1016.8
2019-03-09T03:27:16.790Z,1016.87
2019-03-09T03:28:16.719Z,1016.86
2019-03-09T03:29:16.775Z,1016.87
2019-03-09T03:30:16.943Z,1016.71
2019-03-09T03:31:16.792Z,1016.77
2019-03-09T03:32:16.558Z,1016.76
2019-03-09T03:33:16.906Z,1016.79
2019-03-09T03:34:16.849Z,1016.77
2019-03-09T03:35:16.728Z,1016.76
2019-03-09T03:36:16.667Z,1016.79
2019-03-09T03:37:16.777Z,1016.76
2019-03-09T03:38:16.725Z,1016.73
2019-03-09T03:39:16.701Z,1016.71
2019-03-09T03:40:16.522Z,1016.74
2019-03-09T03:41:16.817Z,1016.71
2019-03-09T03:42:16.818Z,1016.69
2019-03-09T03:43:16.677Z,1016.71
2019-03-09T03:44:16.747Z,1016.7
2019-03-09T03:45:17.066Z,1016.7
2019-03-09T03:46:16.694Z,1016.71
2019-03-09T03:47:17.017Z,1016.75
2019-03-09T03:48:16.549Z,1016.63
2019-03-09T03:49:16.574Z,1016.73
2019-03-09T03:50:16.765Z,1016.74
2019-03-09T03:51:16.579Z,1016.7
2019-03-09T03:52:16.637Z,1016.65
2019-03-09T03:53:16.770Z,1016.66
2019-03-09T03:54:16.611Z,1016.63
2019-03-09T03:55:16.807Z,1016.68
2019-03-09T03:56:16.828Z,1016.75
2019-03-09T03:57:16.611Z,1016.72
2019-03-09T03:58:16.625Z,1016.7
2019-03-09T03:59:16.853Z,1016.67
2019-03-09T04:00:16.742Z,1016.7
2019-03-09T04:01:16.800Z,1016.64
2019-03-09T04:02:16.852Z,1016.71
2019-03-09T04:03:16.740Z,1016.72
2019-03-09T04:04:16.719Z,1016.57
2019-03-09T04:05:16.647Z,1016.76
2019-03-09T04:06:16.698Z,1016.67
2019-03-09T04:07:16.755Z,1016.68
2019-03-09T04:08:16.558Z,1016.69
2019-03-09T04:09:16.791Z,1016.64
2019-03-09T04:10:16.651Z,1016.68
2019-03-09T04:11:16.568Z,1016.77
2019-03-09T04:12:16.832Z,1016.75
2019-03-09T04:13:16.649Z,1016.7
2019-03-09T04:14:16.641Z,1016.73
2019-03-09T04:15:16.804Z,1016.74
2019-03-09T04:16:16.609Z,1016.77
2019-03-09T04:17:16.794Z,1016.75
2019-03-09T04:18:16.878Z,1016.72
2019-03-09T04:19:16.682Z,1016.72
2019-03-09T04:20:16.842Z,1016.78
2019-03-09T04:21:16.499Z,1016.79
2019-03-09T04:22:16.660Z,1016.8
2019-03-09T04:23:16.809Z,1016.71
2019-03-09T04:24:16.614Z,1016.83
2019-03-09T04:25:16.645Z,1017
2019-03-09T04:26:16.844Z,1016.87
2019-03-09T04:27:16.626Z,1016.76
2019-03-09T04:28:16.766Z,1016.89
2019-03-09T04:29:16.823Z,1016.85
2019-03-09T04:30:16.675Z,1017
2019-03-09T04:31:16.751Z,1016.97
2019-03-09T04:32:16.862Z,1017.05
2019-03-09T04:33:16.577Z,1017.03
2019-03-09T04:34:16.757Z,1017.15
2019-03-09T04:35:16.601Z,1017.09
2019-03-09T04:36:16.601Z,1017.14
2019-03-09T04:37:16.783Z,1017.16
2019-03-09T04:38:16.579Z,1017.14
2019-03-09T04:39:16.880Z,1017.18
2019-03-09T04:40:16.677Z,1017.19
2019-03-09T04:41:16.626Z,1017.19
2019-03-09T04:42:16.720Z,1017.19
2019-03-09T04:43:16.482Z,1017.17
2019-03-09T04:44:16.629Z,1017.13
2019-03-09T04:45:16.791Z,1017.21
2019-03-09T04:46:16.543Z,1017.29
2019-03-09T04:47:16.715Z,1017.24
2019-03-09T04:48:16.812Z,1017.25
2019-03-09T04:49:16.593Z,1017.3
2019-03-09T04:50:16.721Z,1017.21
2019-03-09T04:51:16.739Z,1017.3
2019-03-09T04:52:16.536Z,1017.36
2019-03-09T04:53:16.737Z,1017.36
2019-03-09T04:54:16.570Z,1017.4
2019-03-09T04:55:16.538Z,1017.39
2019-03-09T04:56:16.771Z,1017.46
2019-03-09T04:57:16.691Z,1017.42
2019-03-09T04:58:16.625Z,1017.35
2019-03-09T04:59:16.838Z,1017.48
2019-03-09T05:00:16.610Z,1017.38
2019-03-09T05:01:16.690Z,1017.46
2019-03-09T05:02:16.603Z,1017.36
2019-03-09T05:03:16.763Z,1017.44
2019-03-09T05:04:16.712Z,1017.53
2019-03-09T05:05:16.516Z,1017.47
2019-03-09T05:06:16.673Z,1017.51
2019-03-09T05:07:16.727Z,1017.45
2019-03-09T05:08:16.572Z,1017.46
2019-03-09T05:09:16.667Z,1017.53
2019-03-09T05:10:16.729Z,1017.43
2019-03-09T05:11:16.582Z,1017.49
2019-03-09T05:12:16.744Z,1017.49
2019-03-09T05:13:16.647Z,1017.46
2019-03-09T05:14:16.653Z,1017.47
2019-03-09T05:15:16.769Z,1017.5
2019-03-09T05:16:16.617Z,1017.42
2019-03-09T05:17:16.674Z,1017.44
2019-03-09T05:18:16.782Z,1017.49
2019-03-09T05:19:16.946Z,1017.62
2019-03-09T05:20:16.684Z,1017.56
2019-03-09T05:21:16.496Z,1017.44
2019-03-09T05:22:16.717Z,1017.48
2019-03-09T05:23:16.714Z,1017.54
2019-03-09T05:24:16.671Z,1017.52
2019-03-09T05:25:16.713Z,1017.49
2019-03-09T05:26:16.841Z,1017.66
2019-03-09T05:27:16.642Z,1017.6
2019-03-09T05:28:16.802Z,1017.58
2019-03-09T05:29:16.573Z,1017.59
2019-03-09T05:30:16.698Z,1017.57
2019-03-09T05:31:16.672Z,1017.62
2019-03-09T05:32:16.570Z,1017.55
2019-03-09T05:33:16.632Z,1017.61
2019-03-09T05:34:16.804Z,1017.55
2019-03-09T05:35:16.605Z,1017.59
2019-03-09T05:36:16.657Z,1017.5
2019-03-09T05:37:16.511Z,1017.57
2019-03-09T05:38:16.740Z,1017.58
2019-03-09T05:39:16.700Z,1017.55
2019-03-09T05:40:16.595Z,1017.59
2019-03-09T05:41:16.709Z,1017.45
2019-03-09T05:42:17.042Z,1017.52
2019-03-09T05:43:16.572Z,1017.51
2019-03-09T05:44:16.663Z,1017.46
2019-03-09T05:45:16.586Z,1017.45
2019-03-09T05:46:16.889Z,1017.41
2019-03-09T05:47:17.095Z,1017.46
2019-03-09T05:48:16.598Z,1017.48
2019-03-09T05:49:16.715Z,1017.5
2019-03-09T05:50:16.726Z,1017.5
2019-03-09T05:51:16.585Z,1017.47
2019-03-09T05:52:16.606Z,1017.54
2019-03-09T05:53:16.757Z,1017.49
2019-03-09T05:54:16.604Z,1017.49
2019-03-09T05:55:16.639Z,1017.54
2019-03-09T05:56:16.479Z,1017.58
2019-03-09T05:57:16.618Z,1017.59
2019-03-09T05:58:16.706Z,1017.56
2019-03-09T05:59:16.579Z,1017.6
2019-03-09T06:00:16.708Z,1017.54
2019-03-09T06:01:16.719Z,1017.55
2019-03-09T06:02:16.548Z,1017.64
2019-03-09T06:03:16.744Z,1017.52
2019-03-09T06:04:16.514Z,1017.35
2019-03-09T06:05:16.562Z,1017.52
2019-03-09T06:06:16.656Z,1017.59
2019-03-09T06:07:16.497Z,1017.55
2019-03-09T06:08:16.917Z,1017.59
2019-03-09T06:09:16.831Z,1017.51
2019-03-09T06:10:16.583Z,1017.54
2019-03-09T06:11:16.623Z,1017.51
2019-03-09T06:12:16.617Z,1017.56
2019-03-09T06:13:16.635Z,1017.44
2019-03-09T06:14:16.774Z,1017.41
2019-03-09T06:15:16.438Z,1017.43
2019-03-09T06:16:16.705Z,1017.44
2019-03-09T06:17:16.715Z,1017.55
2019-03-09T06:18:16.511Z,1017.55
2019-03-09T06:19:16.657Z,1017.6
2019-03-09T06:20:16.722Z,1017.63
2019-03-09T06:21:16.624Z,1017.59
2019-03-09T06:22:16.648Z,1017.68
2019-03-09T06:23:16.594Z,1017.7
2019-03-09T06:24:16.688Z,1017.63
2019-03-09T06:25:16.755Z,1017.76
2019-03-09T06:26:16.589Z,1017.77
2019-03-09T06:27:16.974Z,1017.86
2019-03-09T06:28:16.578Z,1017.84
2019-03-09T06:29:16.576Z,1017.81
2019-03-09T06:30:16.632Z,1017.83
2019-03-09T06:31:16.487Z,1017.84
2019-03-09T06:32:16.596Z,1017.82
2019-03-09T06:33:16.775Z,1017.87
2019-03-09T06:34:16.489Z,1017.82
2019-03-09T06:35:16.626Z,1017.83
2019-03-09T06:36:16.717Z,1017.84
2019-03-09T06:37:16.502Z,1017.98
2019-03-09T06:38:16.668Z,1017.86
2019-03-09T06:39:16.551Z,1017.84
2019-03-09T06:40:16.578Z,1017.88
2019-03-09T06:41:16.652Z,1017.96
2019-03-09T06:42:16.590Z,1017.93
2019-03-09T06:43:16.548Z,1017.89
2019-03-09T06:44:16.741Z,1018.03
2019-03-09T06:45:16.558Z,1017.96
2019-03-09T06:46:16.577Z,1017.93
2019-03-09T06:47:16.744Z,1017.96
2019-03-09T06:48:16.575Z,1017.89
2019-03-09T06:49:16.721Z,1018.01
2019-03-09T06:50:16.717Z,1018.04
2019-03-09T06:51:16.682Z,1017.94
2019-03-09T06:52:17.102Z,1017.94
2019-03-09T06:53:16.697Z,1017.97
2019-03-09T06:54:16.639Z,1017.97
2019-03-09T06:55:16.646Z,1018.06
2019-03-09T06:56:16.467Z,1017.96
2019-03-09T06:57:16.625Z,1018.03
2019-03-09T06:58:16.718Z,1017.98
2019-03-09T06:59:16.504Z,1018.1
2019-03-09T07:00:16.616Z,1018.06
2019-03-09T07:01:16.698Z,1018.14
2019-03-09T07:02:16.599Z,1018.17
2019-03-09T07:03:16.607Z,1018.27
2019-03-09T07:04:16.685Z,1018.42
2019-03-09T07:05:16.518Z,1018.37
2019-03-09T07:06:16.648Z,1018.39
2019-03-09T07:07:16.576Z,1018.36
2019-03-09T07:08:16.519Z,1018.38
2019-03-09T07:09:16.623Z,1018.34
2019-03-09T07:10:16.569Z,1018.31
2019-03-09T07:11:16.547Z,1018.34
2019-03-09T07:12:16.708Z,1018.42
2019-03-09T07:13:16.756Z,1018.28
2019-03-09T07:14:16.674Z,1018.29
2019-03-09T07:15:16.693Z,1018.42
2019-03-09T07:16:16.539Z,1018.44
2019-03-09T07:17:16.715Z,1018.53
2019-03-09T07:18:16.613Z,1018.57
2019-03-09T07:19:16.614Z,1018.55
2019-03-09T07:20:16.579Z,1018.61
2019-03-09T07:21:16.459Z,1018.62
2019-03-09T07:22:16.630Z,1018.75
2019-03-09T07:23:16.750Z,1018.75
2019-03-09T07:24:16.471Z,1018.74
2019-03-09T07:25:16.643Z,1018.77
2019-03-09T07:26:16.658Z,1018.75
2019-03-09T07:27:16.620Z,1018.85
2019-03-09T07:28:16.626Z,1018.87
2019-03-09T07:29:16.771Z,1018.9
2019-03-09T07:30:16.484Z,1018.97
2019-03-09T07:31:16.643Z,1018.96
2019-03-09T07:32:16.471Z,1019.12
2019-03-09T07:33:16.556Z,1019.17
2019-03-09T07:34:16.667Z,1019.31
2019-03-09T07:35:16.744Z,1019.23
2019-03-09T07:36:16.504Z,1019.35
2019-03-09T07:37:16.679Z,1019.36
2019-03-09T07:38:16.543Z,1019.3
2019-03-09T07:39:16.605Z,1019.33
2019-03-09T07:40:16.440Z,1019.35
2019-03-09T07:41:16.682Z,1019.4
2019-03-09T07:42:16.630Z,1019.42
2019-03-09T07:43:16.477Z,1019.46
2019-03-09T07:44:16.634Z,1019.44
2019-03-09T07:45:16.769Z,1019.49
2019-03-09T07:46:16.513Z,1019.5
2019-03-09T07:47:16.856Z,1019.54
2019-03-09T07:48:16.634Z,1019.57
2019-03-09T07:49:16.547Z,1019.51
2019-03-09T07:50:16.624Z,1019.54
2019-03-09T07:51:16.416Z,1019.46
2019-03-09T07:52:16.526Z,1019.53
2019-03-09T07:53:16.667Z,1019.46
2019-03-09T07:54:16.511Z,1019.45
2019-03-09T07:55:16.646Z,1019.44
2019-03-09T07:56:16.740Z,1019.47
2019-03-09T07:57:16.541Z,1019.42
2019-03-09T07:58:16.665Z,1019.42
2019-03-09T07:59:16.687Z,1019.39
2019-03-09T08:00:16.541Z,1019.3
2019-03-09T08:01:16.602Z,1019.27
2019-03-09T08:02:16.775Z,1019.29
2019-03-09T08:03:16.551Z,1019.25
2019-03-09T08:04:16.599Z,1019.23
2019-03-09T08:05:16.445Z,1019.23
2019-03-09T08:06:16.574Z,1019.21
2019-03-09T08:07:16.805Z,1019.26
2019-03-09T08:08:16.468Z,1019.24
2019-03-09T08:09:16.593Z,1019.29
2019-03-09T08:10:16.675Z,1019.33
2019-03-09T08:11:16.586Z,1019.31
2019-03-09T08:12:16.701Z,1019.27
2019-03-09T08:13:16.540Z,1019.28
2019-03-09T08:14:16.511Z,1019.25
2019-03-09T08:15:16.661Z,1019.23
2019-03-09T08:16:16.732Z,1019.18
2019-03-09T08:17:16.546Z,1019.25
2019-03-09T08:18:16.691Z,1019.21
2019-03-09T08:19:16.760Z,1019.14
2019-03-09T08:20:16.592Z,1019.13
2019-03-09T08:21:16.843Z,1019.18
2019-03-09T08:22:16.534Z,1019.15
2019-03-09T08:23:16.577Z,1019.22
2019-03-09T08:24:16.490Z,1019.22
2019-03-09T08:25:16.616Z,1019.25
2019-03-09T08:26:16.563Z,1019.18
2019-03-09T08:27:16.400Z,1019.2
2019-03-09T08:28:16.855Z,1019.23
2019-03-09T08:29:16.593Z,1019.23
2019-03-09T08:30:16.427Z,1019.27
2019-03-09T08:31:16.570Z,1019.28
2019-03-09T08:32:16.745Z,1019.31
2019-03-09T08:33:16.493Z,1019.37
2019-03-09T08:34:16.586Z,1019.35
2019-03-09T08:35:16.797Z,1019.35
2019-03-09T08:36:16.530Z,1019.34
2019-03-09T08:37:16.699Z,1019.3
2019-03-09T08:38:16.597Z,1019.3
2019-03-09T08:39:16.526Z,1019.31
2019-03-09T08:40:16.770Z,1019.29
2019-03-09T08:41:16.554Z,1019.29
2019-03-09T08:42:16.579Z,1019.25
2019-03-09T08:43:16.690Z,1019.25
2019-03-09T08:44:16.562Z,1019.35
2019-03-09T08:45:16.562Z,1019.31
2019-03-09T08:46:16.392Z,1019.28
2019-03-09T08:47:16.601Z,1019.35
2019-03-09T08:48:16.597Z,1019.33
2019-03-09T08:49:16.543Z,1019.27
2019-03-09T08:50:16.531Z,1019.3
2019-03-09T08:51:16.575Z,1019.27
2019-03-09T08:52:16.425Z,1019.29
2019-03-09T08:53:16.649Z,1019.31
2019-03-09T08:54:16.613Z,1019.28
2019-03-09T08:55:18.547Z,1019.32
2019-03-09T08:56:16.643Z,1019.14
2019-03-09T08:57:16.657Z,1019.17
2019-03-09T08:58:16.624Z,1019.17
2019-03-09T08:59:16.602Z,1019.19
2019-03-09T09:00:16.673Z,1019.23
2019-03-09T09:01:16.537Z,1019.18
2019-03-09T09:02:16.572Z,1019.26
2019-03-09T09:03:16.429Z,1019.25
2019-03-09T09:04:16.503Z,1019.2
2019-03-09T09:05:16.651Z,1019.21
2019-03-09T09:06:16.507Z,1019.25
2019-03-09T09:07:16.596Z,1019.3
2019-03-09T09:08:16.732Z,1019.23
2019-03-09T09:09:16.576Z,1019.24
2019-03-09T09:10:16.666Z,1019.31
2019-03-09T09:11:16.683Z,1019.23
2019-03-09T09:12:16.601Z,1019.25
2019-03-09T09:13:16.564Z,1019.25
2019-03-09T09:14:16.399Z,1019.3
2019-03-09T09:15:16.555Z,1019.35
2019-03-09T09:16:16.716Z,1019.32
2019-03-09T09:17:16.577Z,1019.31
2019-03-09T09:18:16.612Z,1019.4
2019-03-09T09:19:16.634Z,1019.38
2019-03-09T09:20:16.587Z,1019.44
2019-03-09T09:21:16.567Z,1019.44
2019-03-09T09:22:16.436Z,1019.53
2019-03-09T09:23:16.962Z,1019.49
2019-03-09T09:24:16.839Z,1019.53
2019-03-09T09:25:16.542Z,1019.55
2019-03-09T09:26:16.563Z,1019.54
2019-03-09T09:27:16.596Z,1019.53
2019-03-09T09:28:16.557Z,1019.49
2019-03-09T09:29:16.561Z,1019.53
2019-03-09T09:30:16.506Z,1019.44
2019-03-09T09:31:16.608Z,1019.45
2019-03-09T09:32:16.630Z,1019.43
2019-03-09T09:33:16.383Z,1019.52
2019-03-09T09:34:16.589Z,1019.56
2019-03-09T09:35:16.608Z,1019.53
2019-03-09T09:36:16.453Z,1019.47
2019-03-09T09:37:16.620Z,1019.57
2019-03-09T09:38:16.912Z,1019.39
2019-03-09T09:39:16.427Z,1019.55
2019-03-09T09:40:16.634Z,1019.5
2019-03-09T09:41:16.559Z,1019.54
2019-03-09T09:42:16.494Z,1019.45
2019-03-09T09:43:16.662Z,1019.51
2019-03-09T09:44:16.532Z,1019.46
2019-03-09T09:45:17.095Z,1019.44
2019-03-09T09:46:16.892Z,1019.45
2019-03-09T09:47:16.523Z,1019.53
2019-03-09T09:48:16.618Z,1019.45
2019-03-09T09:49:16.508Z,1019.49
2019-03-09T09:50:16.581Z,1019.49
2019-03-09T09:51:16.596Z,1019.43
2019-03-09T09:52:16.467Z,1019.36
2019-03-09T09:53:16.864Z,1019.41
2019-03-09T09:54:16.745Z,1019.42
2019-03-09T09:55:16.571Z,1019.43
2019-03-09T09:56:16.529Z,1019.39
2019-03-09T09:57:16.397Z,1019.4
2019-03-09T09:58:16.643Z,1019.38
2019-03-09T09:59:16.585Z,1019.39
2019-03-09T10:00:16.500Z,1019.35
2019-03-09T10:01:16.503Z,1019.36
2019-03-09T10:02:16.642Z,1019.35
2019-03-09T10:03:16.480Z,1019.42
2019-03-09T10:04:16.625Z,1019.47
2019-03-09T10:05:16.375Z,1019.38
2019-03-09T10:06:16.551Z,1019.44
2019-03-09T10:07:16.422Z,1019.47
2019-03-09T10:08:16.455Z,1019.55
2019-03-09T10:09:16.571Z,1019.59
2019-03-09T10:10:16.455Z,1019.6
2019-03-09T10:11:16.455Z,1019.63
2019-03-09T10:12:16.667Z,1019.72
2019-03-09T10:13:16.504Z,1019.68
2019-03-09T10:14:16.613Z,1019.7
2019-03-09T10:15:16.633Z,1019.67
2019-03-09T10:16:16.494Z,1019.68
2019-03-09T10:17:16.481Z,1019.72
2019-03-09T10:18:16.388Z,1019.74
2019-03-09T10:19:16.614Z,1019.73
2019-03-09T10:20:16.646Z,1019.73
2019-03-09T10:21:16.425Z,1019.75
2019-03-09T10:22:16.666Z,1019.85
2019-03-09T10:23:16.597Z,1019.81
2019-03-09T10:24:16.429Z,1019.83
2019-03-09T10:25:16.574Z,1019.76
2019-03-09T10:26:16.785Z,1019.81
2019-03-09T10:27:16.650Z,1019.9
2019-03-09T10:28:16.832Z,1019.93
2019-03-09T10:29:16.877Z,1019.86
2019-03-09T10:30:16.495Z,1019.97
2019-03-09T10:31:16.631Z,1019.9
2019-03-09T10:32:16.459Z,1019.9
2019-03-09T10:33:16.539Z,1019.86
2019-03-09T10:34:16.376Z,1019.92
2019-03-09T10:35:16.503Z,1019.96
2019-03-09T10:36:16.527Z,1019.96
2019-03-09T10:37:16.408Z,1019.95
2019-03-09T10:38:16.546Z,1019.9
2019-03-09T10:39:16.701Z,1019.86
2019-03-09T10:40:16.580Z,1019.95
2019-03-09T10:41:16.602Z,1019.9
2019-03-09T10:42:16.417Z,1019.88
2019-03-09T10:43:16.488Z,1019.88
2019-03-09T10:44:16.588Z,1019.82
2019-03-09T10:45:16.522Z,1019.85
2019-03-09T10:46:16.489Z,1019.79
2019-03-09T10:47:16.648Z,1019.79
2019-03-09T10:48:16.458Z,1019.69
2019-03-09T10:49:16.561Z,1019.69
2019-03-09T10:50:16.726Z,1019.68
2019-03-09T10:51:16.541Z,1019.65
2019-03-09T10:52:16.550Z,1019.69
2019-03-09T10:53:16.477Z,1019.6
2019-03-09T10:54:16.515Z,1019.55
2019-03-09T10:55:16.557Z,1019.51
2019-03-09T10:56:16.505Z,1019.43
2019-03-09T10:57:16.552Z,1019.38
2019-03-09T10:58:16.653Z,1019.37
2019-03-09T10:59:16.549Z,1019.31
2019-03-09T11:00:16.579Z,1019.28
2019-03-09T11:01:16.415Z,1019.27
2019-03-09T11:02:16.575Z,1019.22
2019-03-09T11:03:16.633Z,1019.2
2019-03-09T11:04:16.505Z,1019.18
2019-03-09T11:05:16.537Z,1019.17
2019-03-09T11:06:16.627Z,1019.19
2019-03-09T11:07:16.412Z,1019.23
2019-03-09T11:08:16.560Z,1019.23
2019-03-09T11:09:16.610Z,1019.22
2019-03-09T11:10:16.527Z,1019.17
2019-03-09T11:11:16.457Z,1019.15
2019-03-09T11:12:17.074Z,1019.14
2019-03-09T11:13:16.520Z,1019.1
2019-03-09T11:14:16.549Z,1019.03
2019-03-09T11:15:16.469Z,1019.03
2019-03-09T11:16:16.554Z,1019.03
2019-03-09T11:17:16.559Z,1019.01
2019-03-09T11:18:16.389Z,1019
2019-03-09T11:19:16.604Z,1019.09
2019-03-09T11:20:16.402Z,1019.1
2019-03-09T11:21:16.536Z,1019.05
2019-03-09T11:22:16.536Z,1019.07
2019-03-09T11:23:16.416Z,1019.17
2019-03-09T11:24:16.454Z,1019.26
2019-03-09T11:25:16.625Z,1019.37
2019-03-09T11:26:16.561Z,1019.4
2019-03-09T11:27:16.370Z,1019.44
2019-03-09T11:28:16.690Z,1019.37
2019-03-09T11:29:16.584Z,1019.43
2019-03-09T11:30:16.514Z,1019.33
2019-03-09T11:31:16.536Z,1019.34
2019-03-09T11:32:16.586Z,1019.39
2019-03-09T11:33:16.545Z,1019.38
2019-03-09T11:34:16.608Z,1019.33
2019-03-09T11:35:16.494Z,1019.49
2019-03-09T11:36:16.489Z,1019.53
2019-03-09T11:37:16.613Z,1019.58
2019-03-09T11:38:16.502Z,1019.6
2019-03-09T11:39:16.498Z,1019.66
2019-03-09T11:40:16.689Z,1019.66
2019-03-09T11:41:19.744Z,1019.7
2019-03-09T11:42:16.506Z,1019.7
2019-03-09T11:43:16.294Z,1019.74
2019-03-09T11:44:16.508Z,1019.74
2019-03-09T11:45:16.513Z,1019.75
2019-03-09T11:46:16.472Z,1019.75
2019-03-09T11:47:16.511Z,1019.71
2019-03-09T11:48:16.594Z,1019.71
2019-03-09T11:49:16.404Z,1019.65
2019-03-09T11:50:16.756Z,1019.59
2019-03-09T11:51:16.599Z,1019.56
2019-03-09T11:52:20.847Z,1019.57
2019-03-09T11:53:16.570Z,1019.58
2019-03-09T11:54:16.560Z,1019.53
2019-03-09T11:55:16.543Z,1019.49
2019-03-09T11:56:16.887Z,1019.48
2019-03-09T11:57:16.371Z,1019.43
2019-03-09T11:58:16.430Z,1019.43
2019-03-09T11:59:16.549Z,1019.39
2019-03-09T12:00:16.473Z,1019.41
2019-03-09T12:01:16.457Z,1019.36
2019-03-09T12:02:16.562Z,1019.34
2019-03-09T12:03:16.490Z,1019.39
2019-03-09T12:04:16.485Z,1019.4
2019-03-09T12:05:16.678Z,1019.49
2019-03-09T12:06:16.453Z,1019.48
2019-03-09T12:07:16.519Z,1019.52
2019-03-09T12:08:16.340Z,1019.55